createdAt,value
2017-12-12T00:02:19.198Z,92.00
2017-12-12T00:04:46.631Z,92.00
2017-12-12T00:07:14.057Z,92.00
2017-12-12T00:09:41.609Z,92.00
2017-12-12T00:12:09.132Z,92.40
2017-12-12T00:14:36.568Z,92.10
2017-12-12T00:17:03.992Z,92.10
2017-12-12T00:19:31.557Z,92.10
2017-12-12T00:21:59.757Z,92.50
2017-12-12T00:24:27.243Z,92.10
2017-12-12T00:26:54.692Z,92.10
2017-12-12T00:29:22.161Z,92.10
2017-12-12T00:31:49.606Z,92.10
2017-12-12T00:34:17.029Z,92.10
2017-12-12T00:36:45.352Z,92.20
2017-12-12T00:39:12.798Z,92.10
2017-12-12T00:41:40.226Z,92.10
2017-12-12T00:44:08.424Z,92.10
2017-12-12T00:46:35.844Z,92.10
2017-12-12T00:49:04.037Z,92.10
2017-12-12T00:51:31.476Z,92.10
2017-12-12T00:53:59.675Z,92.10
2017-12-12T00:56:27.095Z,92.10
2017-12-12T00:58:54.537Z,92.10
2017-12-12T01:01:21.957Z,92.20
2017-12-12T01:03:49.373Z,92.10
2017-12-12T01:06:17.605Z,92.50
2017-12-12T01:08:45.057Z,92.20
2017-12-12T01:11:12.493Z,92.20
2017-12-12T01:13:39.965Z,92.20
2017-12-12T01:16:07.384Z,92.20
2017-12-12T01:18:35.576Z,92.20
2017-12-12T01:21:03.057Z,92.20
2017-12-12T01:23:30.541Z,92.20
2017-12-12T01:25:58.068Z,92.10
2017-12-12T01:28:25.509Z,92.20
2017-12-12T01:30:52.937Z,92.20
2017-12-12T01:33:21.166Z,92.20
2017-12-12T01:35:48.616Z,92.20
2017-12-12T01:38:16.076Z,92.20
2017-12-12T01:40:43.557Z,92.50
2017-12-12T01:43:11.112Z,92.20
2017-12-12T01:45:38.544Z,92.10
2017-12-12T01:48:05.969Z,92.10
2017-12-12T01:50:34.284Z,92.10
2017-12-12T01:53:01.717Z,92.10
2017-12-12T01:55:29.193Z,92.10
2017-12-12T01:57:56.630Z,92.10
2017-12-12T02:00:24.065Z,92.10
2017-12-12T02:02:51.526Z,92.10
2017-12-12T02:05:18.956Z,92.10
2017-12-12T02:07:46.381Z,92.10
2017-12-12T02:10:13.802Z,92.10
2017-12-12T02:12:41.352Z,92.10
2017-12-12T02:15:08.788Z,92.10
2017-12-12T02:17:36.273Z,92.10
2017-12-12T02:20:03.713Z,92.10
2017-12-12T02:22:31.145Z,92.10
2017-12-12T02:24:59.357Z,92.10
2017-12-12T02:27:26.789Z,92.10
2017-12-12T02:29:54.217Z,92.10
2017-12-12T02:32:22.422Z,92.10
2017-12-12T02:34:49.852Z,92.10
2017-12-12T02:37:18.049Z,92.10
2017-12-12T02:39:45.532Z,92.10
2017-12-12T02:42:12.981Z,92.10
2017-12-12T02:44:40.437Z,92.10
2017-12-12T02:47:07.874Z,92.10
2017-12-12T02:49:35.311Z,92.10
2017-12-12T02:52:03.506Z,92.20
2017-12-12T02:54:30.992Z,92.20
2017-12-12T02:56:58.454Z,92.20
2017-12-12T02:59:25.878Z,92.20
2017-12-12T03:01:53.365Z,92.20
2017-12-12T03:04:20.816Z,92.20
2017-12-12T03:06:48.224Z,92.20
2017-12-12T03:09:16.460Z,92.20
2017-12-12T03:11:43.915Z,92.20
2017-12-12T03:14:11.338Z,92.20
2017-12-12T03:16:38.827Z,92.20
2017-12-12T03:19:06.269Z,92.20
2017-12-12T03:21:33.738Z,92.20
2017-12-12T03:24:01.176Z,92.20
2017-12-12T03:26:28.658Z,92.20
2017-12-12T03:28:56.096Z,92.20
2017-12-12T03:31:23.601Z,92.20
2017-12-12T03:33:51.038Z,92.10
2017-12-12T03:36:18.485Z,92.20
2017-12-12T03:38:45.910Z,92.10
2017-12-12T03:41:13.396Z,92.10
2017-12-12T03:43:40.858Z,92.10
2017-12-12T03:46:08.298Z,92.10
2017-12-12T03:48:35.721Z,92.10
2017-12-12T03:51:03.909Z,92.00
2017-12-12T03:53:31.335Z,92.00
2017-12-12T03:55:58.854Z,92.00
2017-12-12T03:58:26.308Z,92.40
2017-12-12T04:00:53.747Z,92.00
2017-12-12T04:03:21.183Z,92.10
2017-12-12T04:05:49.404Z,92.10
2017-12-12T04:08:16.832Z,92.10
2017-12-12T04:10:44.320Z,92.10
2017-12-12T04:13:11.773Z,92.40
2017-12-12T04:15:39.230Z,92.10
2017-12-12T04:18:06.672Z,92.10
2017-12-12T04:20:34.089Z,92.10
2017-12-12T04:23:02.276Z,92.10
2017-12-12T04:25:29.720Z,92.10
2017-12-12T04:27:57.944Z,92.10
2017-12-12T04:30:25.397Z,92.10
2017-12-12T04:32:52.853Z,92.10
2017-12-12T04:35:20.312Z,92.00
2017-12-12T04:37:47.773Z,92.00
2017-12-12T04:40:15.209Z,92.00
2017-12-12T04:42:42.684Z,92.00
2017-12-12T04:45:10.115Z,92.00
2017-12-12T04:47:37.548Z,92.00
2017-12-12T04:50:05.743Z,92.00
2017-12-12T04:52:33.233Z,92.00
2017-12-12T04:55:00.688Z,92.00
2017-12-12T04:57:28.144Z,92.00
2017-12-12T04:59:55.570Z,92.00
2017-12-12T05:02:23.009Z,92.00
2017-12-12T05:04:51.291Z,92.10
2017-12-12T05:07:18.789Z,92.00
2017-12-12T05:09:46.232Z,92.00
2017-12-12T05:12:13.656Z,92.00
2017-12-12T05:14:41.863Z,92.00
2017-12-12T05:17:09.333Z,92.00
2017-12-12T05:19:36.793Z,92.00
2017-12-12T05:22:04.219Z,92.00
2017-12-12T05:24:32.421Z,92.10
2017-12-12T05:26:59.880Z,92.10
2017-12-12T05:29:27.334Z,92.10
2017-12-12T05:31:54.796Z,92.10
2017-12-12T05:34:22.229Z,92.10
2017-12-12T05:36:49.716Z,92.00
2017-12-12T05:39:17.157Z,92.00
2017-12-12T05:41:44.585Z,92.00
2017-12-12T05:44:12.805Z,92.10
2017-12-12T05:46:40.229Z,92.00
2017-12-12T05:49:07.660Z,92.00
2017-12-12T05:51:35.893Z,91.80
2017-12-12T05:54:03.324Z,92.00
2017-12-12T05:56:30.800Z,92.00
2017-12-12T05:58:58.232Z,92.00
2017-12-12T06:01:25.716Z,92.00
2017-12-12T06:03:53.141Z,92.00
2017-12-12T06:06:20.574Z,92.00
2017-12-12T06:08:48.768Z,92.00
2017-12-12T06:11:16.966Z,92.00
2017-12-12T06:13:44.390Z,92.00
2017-12-12T06:16:12.615Z,92.00
2017-12-12T06:18:40.041Z,92.00
2017-12-12T06:21:07.463Z,91.90
2017-12-12T06:23:34.984Z,91.90
2017-12-12T06:26:02.449Z,91.90
2017-12-12T06:28:29.897Z,91.90
2017-12-12T06:30:57.352Z,91.90
2017-12-12T06:33:24.785Z,91.90
2017-12-12T06:35:52.269Z,91.90
2017-12-12T06:38:19.728Z,91.90
2017-12-12T06:40:47.164Z,91.90
2017-12-12T06:43:14.648Z,91.80
2017-12-12T06:45:42.096Z,91.70
2017-12-12T06:48:09.549Z,91.70
2017-12-12T06:50:37.016Z,91.70
2017-12-12T06:53:04.562Z,91.70
2017-12-12T06:55:32.029Z,91.80
2017-12-12T06:57:59.455Z,91.70
2017-12-12T07:00:26.890Z,91.80
2017-12-12T07:02:55.081Z,91.90
2017-12-12T07:05:22.512Z,91.80
2017-12-12T07:07:50.022Z,91.80
2017-12-12T07:10:17.445Z,91.60
2017-12-12T07:12:45.660Z,91.90
2017-12-12T07:15:13.108Z,91.90
2017-12-12T07:17:40.572Z,91.90
2017-12-12T07:20:08.004Z,91.90
2017-12-12T07:22:35.455Z,91.90
2017-12-12T07:25:03.660Z,91.90
2017-12-12T07:27:31.096Z,91.90
2017-12-12T07:29:58.526Z,92.00
2017-12-12T07:32:26.036Z,92.00
2017-12-12T07:34:53.469Z,92.00
2017-12-12T07:37:20.945Z,92.00
2017-12-12T07:39:48.377Z,92.00
2017-12-12T07:42:15.865Z,92.10
2017-12-12T07:44:43.311Z,92.10
2017-12-12T07:47:10.733Z,92.10
2017-12-12T07:49:38.208Z,92.10
2017-12-12T07:52:05.650Z,92.10
2017-12-12T07:54:33.130Z,92.10
2017-12-12T07:57:00.585Z,92.10
2017-12-12T07:59:28.045Z,92.10
2017-12-12T08:01:55.473Z,92.10
2017-12-12T08:04:22.952Z,92.10
2017-12-12T08:06:50.392Z,92.10
2017-12-12T08:09:17.874Z,92.10
2017-12-12T08:11:45.296Z,92.10
2017-12-12T08:14:12.780Z,92.10
2017-12-12T08:16:40.221Z,92.10
2017-12-12T08:19:07.647Z,92.00
2017-12-12T08:21:35.868Z,92.00
2017-12-12T08:24:03.320Z,92.00
2017-12-12T08:26:30.753Z,92.00
2017-12-12T08:28:58.193Z,91.90
2017-12-12T08:31:26.392Z,92.00
2017-12-12T08:33:53.820Z,92.00
2017-12-12T08:36:22.026Z,91.90
2017-12-12T08:38:49.452Z,91.90
2017-12-12T08:41:17.666Z,91.90
2017-12-12T08:43:45.129Z,91.90
2017-12-12T08:46:12.589Z,91.90
2017-12-12T08:48:40.020Z,91.90
2017-12-12T08:51:07.461Z,91.90
2017-12-12T08:53:35.677Z,91.80
2017-12-12T08:56:03.125Z,91.80
2017-12-12T08:58:30.544Z,91.60
2017-12-12T09:00:58.736Z,91.80
2017-12-12T09:03:26.234Z,91.70
2017-12-12T09:05:53.652Z,91.80
2017-12-12T09:08:21.133Z,91.80
2017-12-12T09:10:48.598Z,91.80
2017-12-12T09:13:16.025Z,91.80
2017-12-12T09:15:43.448Z,91.80
2017-12-12T09:18:10.874Z,91.70
2017-12-12T09:20:38.422Z,91.80
2017-12-12T09:23:05.881Z,91.80
2017-12-12T09:25:33.305Z,91.90
2017-12-12T09:28:00.888Z,91.90
2017-12-12T09:30:28.359Z,91.90
2017-12-12T09:32:55.784Z,91.80
2017-12-12T09:35:23.222Z,91.70
2017-12-12T09:37:51.409Z,91.60
2017-12-12T09:40:18.850Z,91.60
2017-12-12T09:42:47.046Z,91.60
2017-12-12T09:45:14.537Z,91.60
2017-12-12T09:47:41.989Z,91.60
2017-12-12T09:50:09.434Z,91.60
2017-12-12T09:52:36.897Z,91.50
2017-12-12T09:55:04.321Z,91.60
2017-12-12T09:57:32.523Z,91.50
2017-12-12T09:59:59.990Z,91.50
2017-12-12T10:02:27.424Z,91.50
2017-12-12T10:04:54.849Z,91.50
2017-12-12T10:07:23.076Z,91.40
2017-12-12T10:09:50.525Z,91.50
2017-12-12T10:12:17.989Z,91.40
2017-12-12T10:14:45.449Z,91.40
2017-12-12T10:17:12.902Z,91.30
2017-12-12T10:19:40.327Z,91.20
2017-12-12T10:22:08.526Z,90.90
2017-12-12T10:24:35.951Z,90.90
2017-12-12T10:27:04.157Z,90.80
2017-12-12T10:29:31.677Z,90.80
2017-12-12T10:31:59.874Z,90.80
2017-12-12T10:34:27.361Z,90.80
2017-12-12T10:36:54.872Z,90.80
2017-12-12T10:39:22.241Z,90.80
2017-12-12T10:41:49.665Z,90.80
2017-12-12T10:44:17.185Z,90.80
2017-12-12T10:46:44.647Z,91.00
2017-12-12T10:49:12.081Z,90.70
2017-12-12T10:51:39.561Z,90.60
2017-12-12T10:54:07.013Z,90.60
2017-12-12T10:56:34.453Z,90.70
2017-12-12T10:59:01.937Z,90.70
2017-12-12T11:01:29.387Z,90.70
2017-12-12T11:03:56.829Z,90.70
2017-12-12T11:06:24.251Z,90.70
2017-12-12T11:08:51.680Z,90.70
2017-12-12T11:11:19.116Z,90.70
2017-12-12T11:13:46.555Z,90.70
2017-12-12T11:16:14.029Z,90.70
2017-12-12T11:18:41.467Z,90.70
2017-12-12T11:21:08.889Z,90.60
2017-12-12T11:23:37.077Z,90.50
2017-12-12T11:26:05.285Z,90.40
2017-12-12T11:28:32.744Z,90.40
2017-12-12T11:31:00.196Z,90.40
2017-12-12T11:33:27.647Z,90.30
2017-12-12T11:35:55.120Z,90.30
2017-12-12T11:38:22.572Z,90.30
2017-12-12T11:40:50.126Z,90.30
2017-12-12T11:43:17.589Z,90.30
2017-12-12T11:45:45.017Z,90.20
2017-12-12T11:48:13.229Z,90.10
2017-12-12T11:50:40.689Z,90.10
2017-12-12T11:53:08.109Z,90.10
2017-12-12T11:55:35.590Z,90.10
2017-12-12T11:58:03.022Z,90.10
2017-12-12T12:00:31.206Z,90.30
2017-12-12T12:02:58.636Z,90.20
2017-12-12T12:05:26.853Z,90.30
2017-12-12T12:07:54.277Z,90.30
2017-12-12T12:10:22.592Z,90.40
2017-12-12T12:12:50.053Z,90.30
2017-12-12T12:15:17.473Z,90.30
2017-12-12T12:17:44.961Z,90.30
2017-12-12T12:20:12.419Z,90.30
2017-12-12T12:22:39.841Z,90.30
2017-12-12T12:25:08.044Z,90.10
2017-12-12T12:27:35.501Z,90.10
2017-12-12T12:30:02.969Z,90.20
2017-12-12T12:32:30.401Z,90.20
2017-12-12T12:34:57.821Z,90.20
2017-12-12T12:37:26.052Z,90.40
2017-12-12T12:39:53.484Z,90.10
2017-12-12T12:42:20.905Z,90.10
2017-12-12T12:44:48.427Z,90.00
2017-12-12T12:47:15.877Z,90.00
2017-12-12T12:49:43.536Z,90.00
2017-12-12T12:52:10.963Z,89.80
2017-12-12T12:54:39.162Z,89.70
2017-12-12T12:57:06.593Z,89.70
2017-12-12T12:59:34.780Z,89.60
2017-12-12T13:02:02.220Z,89.60
2017-12-12T13:04:30.401Z,89.50
2017-12-12T13:06:57.888Z,89.40
2017-12-12T13:09:25.320Z,89.50
2017-12-12T13:11:52.805Z,89.50
2017-12-12T13:14:20.237Z,89.50
2017-12-12T13:16:47.721Z,89.50
2017-12-12T13:19:15.152Z,89.50
2017-12-12T13:21:42.641Z,89.60
2017-12-12T13:24:10.084Z,89.70
2017-12-12T13:26:37.512Z,89.80
2017-12-12T13:29:05.697Z,89.80
2017-12-12T13:31:33.177Z,89.70
2017-12-12T13:34:00.609Z,89.70
2017-12-12T13:36:28.030Z,89.70
2017-12-12T13:38:55.460Z,89.70
2017-12-12T13:41:22.907Z,89.70
2017-12-12T13:43:50.320Z,89.70
2017-12-12T13:46:18.524Z,89.70
2017-12-12T13:48:45.994Z,89.80
2017-12-12T13:51:13.414Z,89.70
2017-12-12T13:53:41.617Z,89.80
2017-12-12T13:56:09.047Z,89.70
2017-12-12T13:58:37.246Z,89.80
2017-12-12T14:01:04.713Z,89.80
2017-12-12T14:03:32.170Z,89.70
2017-12-12T14:05:59.594Z,89.70
2017-12-12T14:08:27.909Z,89.80
2017-12-12T14:10:55.332Z,89.80
2017-12-12T14:13:22.764Z,89.80
2017-12-12T14:15:50.965Z,89.90
2017-12-12T14:18:18.386Z,89.90
2017-12-12T14:20:45.905Z,89.90
2017-12-12T14:23:13.349Z,89.80
2017-12-12T14:25:40.769Z,90.00
2017-12-12T14:28:08.996Z,90.00
2017-12-12T14:30:36.444Z,90.00
2017-12-12T14:33:03.925Z,90.00
2017-12-12T14:35:31.346Z,90.10
2017-12-12T14:37:58.789Z,90.20
2017-12-12T14:40:26.211Z,90.20
2017-12-12T14:42:53.732Z,90.30
2017-12-12T14:45:21.169Z,90.30
2017-12-12T14:47:48.589Z,90.40
2017-12-12T14:50:16.013Z,90.40
2017-12-12T14:52:43.452Z,90.50
2017-12-12T14:55:11.014Z,90.80
2017-12-12T14:57:38.521Z,90.50
2017-12-12T15:00:05.953Z,90.60
2017-12-12T15:02:33.384Z,90.60
2017-12-12T15:05:00.853Z,90.60
2017-12-12T15:07:28.342Z,90.70
2017-12-12T15:09:55.705Z,90.70
2017-12-12T15:12:23.187Z,91.00
2017-12-12T15:14:51.389Z,90.70
2017-12-12T15:17:18.853Z,90.70
2017-12-12T15:19:46.314Z,90.80
2017-12-12T15:22:13.752Z,90.80
2017-12-12T15:24:41.230Z,90.80
2017-12-12T15:27:08.684Z,90.90
2017-12-12T15:29:36.113Z,90.90
2017-12-12T15:32:03.534Z,90.90
2017-12-12T15:34:30.963Z,90.90
2017-12-12T15:36:58.514Z,91.00
2017-12-12T15:39:25.954Z,91.10
2017-12-12T15:41:53.381Z,90.80
2017-12-12T15:44:21.709Z,90.90
2017-12-12T15:46:49.166Z,90.90
2017-12-12T15:49:16.625Z,90.90
2017-12-12T15:51:44.073Z,90.90
2017-12-12T15:54:11.509Z,90.90
2017-12-12T15:56:38.942Z,91.00
2017-12-12T15:59:07.155Z,90.90
2017-12-12T16:01:34.618Z,90.90
2017-12-12T16:04:02.077Z,90.90
2017-12-12T16:06:29.728Z,91.00
2017-12-12T16:08:57.133Z,91.00
2017-12-12T16:11:24.564Z,91.00
2017-12-12T16:13:52.013Z,91.00
2017-12-12T16:16:19.453Z,90.90
2017-12-12T16:18:46.947Z,90.90
2017-12-12T16:21:15.110Z,90.90
2017-12-12T16:23:42.544Z,90.90
2017-12-12T16:26:10.036Z,91.30
2017-12-12T16:28:37.489Z,91.00
2017-12-12T16:31:05.043Z,91.10
2017-12-12T16:33:32.460Z,91.10
2017-12-12T16:35:59.941Z,91.10
2017-12-12T16:38:27.389Z,91.10
2017-12-12T16:40:54.820Z,91.00
2017-12-12T16:43:22.265Z,91.00
2017-12-12T16:45:50.460Z,90.90
2017-12-12T16:48:17.888Z,90.90
2017-12-12T16:50:46.178Z,90.80
2017-12-12T16:53:14.369Z,90.80
2017-12-12T16:55:41.812Z,90.80
2017-12-12T16:58:10.030Z,90.80
2017-12-12T17:00:37.483Z,90.80
2017-12-12T17:03:04.937Z,90.80
2017-12-12T17:05:32.408Z,90.80
2017-12-12T17:07:59.849Z,90.70
2017-12-12T17:10:27.285Z,90.80
2017-12-12T17:12:54.725Z,90.70
2017-12-12T17:15:22.953Z,90.90
2017-12-12T17:17:50.390Z,90.90
2017-12-12T17:20:17.857Z,90.90
2017-12-12T17:22:45.288Z,90.90
2017-12-12T17:25:12.809Z,90.90
2017-12-12T17:27:40.262Z,90.90
2017-12-12T17:30:07.689Z,90.90
2017-12-12T17:32:35.177Z,90.90
2017-12-12T17:35:02.649Z,91.00
2017-12-12T17:37:30.080Z,91.00
2017-12-12T17:39:57.520Z,91.00
2017-12-12T17:42:24.966Z,91.10
2017-12-12T17:44:53.157Z,91.20
2017-12-12T17:47:20.589Z,91.20
2017-12-12T17:49:48.813Z,91.30
2017-12-12T17:52:16.240Z,91.30
2017-12-12T17:54:43.691Z,91.40
2017-12-12T17:57:11.171Z,91.50
2017-12-12T17:59:38.588Z,91.50
2017-12-12T18:02:06.789Z,91.60
2017-12-12T18:04:34.268Z,91.60
2017-12-12T18:07:01.701Z,91.60
2017-12-12T18:09:29.124Z,91.60
2017-12-12T18:11:57.342Z,91.50
2017-12-12T18:14:24.814Z,91.70
2017-12-12T18:16:52.289Z,91.80
2017-12-12T18:19:19.736Z,91.80
2017-12-12T18:21:47.205Z,91.80
2017-12-12T18:24:14.690Z,91.80
2017-12-12T18:26:42.912Z,92.10
2017-12-12T18:29:10.464Z,91.80
2017-12-12T18:31:37.890Z,91.90
2017-12-12T18:34:06.099Z,91.80
2017-12-12T18:36:33.575Z,91.80
2017-12-12T18:39:01.025Z,91.70
2017-12-12T18:41:28.486Z,91.70
2017-12-12T18:43:55.914Z,91.70
2017-12-12T18:46:23.349Z,91.60
2017-12-12T18:48:51.568Z,91.70
2017-12-12T18:51:19.045Z,91.70
2017-12-12T18:53:46.485Z,91.70
2017-12-12T18:56:13.916Z,91.80
2017-12-12T18:58:41.349Z,91.80
2017-12-12T19:01:09.545Z,91.90
2017-12-12T19:03:36.981Z,91.90
2017-12-12T19:06:05.195Z,91.90
2017-12-12T19:08:32.621Z,91.90
2017-12-12T19:11:01.064Z,92.00
2017-12-12T19:13:28.498Z,92.00
2017-12-12T19:15:55.957Z,92.00
2017-12-12T19:18:23.405Z,92.00
2017-12-12T19:20:50.837Z,92.00
2017-12-12T19:23:18.264Z,92.00
2017-12-12T19:25:45.785Z,92.00
2017-12-12T19:28:13.245Z,92.00
2017-12-12T19:30:40.700Z,92.00
2017-12-12T19:33:08.149Z,92.10
2017-12-12T19:35:35.588Z,92.00
2017-12-12T19:38:03.025Z,92.00
2017-12-12T19:40:31.302Z,92.10
2017-12-12T19:42:58.713Z,92.10
2017-12-12T19:45:26.152Z,92.10
2017-12-12T19:47:53.601Z,92.10
2017-12-12T19:50:21.033Z,92.10
2017-12-12T19:52:49.244Z,92.20
2017-12-12T19:55:16.701Z,92.10
2017-12-12T19:57:44.137Z,92.10
2017-12-12T20:00:12.205Z,92.20
2017-12-12T20:02:39.689Z,92.10
2017-12-12T20:05:07.153Z,92.10
2017-12-12T20:07:34.627Z,92.10
2017-12-12T20:10:02.068Z,92.20
2017-12-12T20:12:29.501Z,92.10
2017-12-12T20:14:56.928Z,92.20
2017-12-12T20:17:25.173Z,92.20
2017-12-12T20:19:52.605Z,92.20
2017-12-12T20:22:20.073Z,92.20
2017-12-12T20:24:47.528Z,92.20
2017-12-12T20:27:14.996Z,92.10
2017-12-12T20:29:42.527Z,92.20
2017-12-12T20:32:09.994Z,92.20
2017-12-12T20:34:38.217Z,92.20
2017-12-12T20:37:05.703Z,92.10
2017-12-12T20:39:33.953Z,92.00
2017-12-12T20:42:01.397Z,92.10
2017-12-12T20:44:28.841Z,92.10
2017-12-12T20:46:56.388Z,92.10
2017-12-12T20:49:23.884Z,92.00
2017-12-12T20:51:51.361Z,92.00
2017-12-12T20:54:18.901Z,91.90
2017-12-12T20:56:46.329Z,91.90
2017-12-12T20:59:14.705Z,91.80
2017-12-12T21:01:42.183Z,91.80
2017-12-12T21:04:09.621Z,91.70
2017-12-12T21:06:37.100Z,91.60
2017-12-12T21:09:04.565Z,91.60
2017-12-12T21:11:32.016Z,91.60
2017-12-12T21:13:59.445Z,91.60
2017-12-12T21:16:26.915Z,91.60
2017-12-12T21:18:54.340Z,91.60
2017-12-12T21:21:22.568Z,91.60
2017-12-12T21:23:50.005Z,91.60
2017-12-12T21:26:17.490Z,91.50
2017-12-12T21:28:45.728Z,91.50
2017-12-12T21:31:13.170Z,91.50
2017-12-12T21:33:40.616Z,91.50
2017-12-12T21:36:08.815Z,91.60
2017-12-12T21:38:36.260Z,91.50
2017-12-12T21:41:03.748Z,91.60
2017-12-12T21:43:31.216Z,91.60
2017-12-12T21:45:58.665Z,91.60
2017-12-12T21:48:26.112Z,91.50
2017-12-12T21:50:53.560Z,91.50
2017-12-12T21:53:21.031Z,91.40
2017-12-12T21:55:48.431Z,91.40
2017-12-12T21:58:16.645Z,91.30
2017-12-12T22:00:44.085Z,91.40
2017-12-12T22:03:11.556Z,91.40
2017-12-12T22:05:38.996Z,91.30
2017-12-12T22:08:06.489Z,91.30
2017-12-12T22:10:33.917Z,91.30
2017-12-12T22:13:01.356Z,91.30
2017-12-12T22:15:29.563Z,91.30
2017-12-12T22:17:56.989Z,91.30
2017-12-12T22:20:25.209Z,91.20
2017-12-12T22:22:52.653Z,91.20
2017-12-12T22:25:20.089Z,91.20
2017-12-12T22:27:47.520Z,91.30
2017-12-12T22:30:15.757Z,91.60
2017-12-12T22:32:43.188Z,91.30
2017-12-12T22:35:10.676Z,91.30
2017-12-12T22:37:38.121Z,91.30
2017-12-12T22:40:05.580Z,91.30
2017-12-12T22:42:33.013Z,91.40
2017-12-12T22:45:07.785Z,91.40
2017-12-12T22:47:35.208Z,91.40
2017-12-12T22:50:02.656Z,91.40
2017-12-12T22:52:30.092Z,91.40
2017-12-12T22:54:58.289Z,91.50
2017-12-12T22:57:25.771Z,91.50
2017-12-12T22:59:53.220Z,91.50
2017-12-12T23:02:20.652Z,91.50
2017-12-12T23:04:48.134Z,91.50
2017-12-12T23:07:15.568Z,91.50
2017-12-12T23:09:42.992Z,91.50
2017-12-12T23:12:10.428Z,91.40
2017-12-12T23:14:37.872Z,91.50
2017-12-12T23:17:05.315Z,91.40
2017-12-12T23:19:32.740Z,91.50
2017-12-12T23:22:00.180Z,91.50
2017-12-12T23:24:28.406Z,91.50
2017-12-12T23:26:55.837Z,91.50
2017-12-12T23:29:23.317Z,91.60
2017-12-12T23:31:50.724Z,91.60
2017-12-12T23:34:18.943Z,91.60
2017-12-12T23:36:46.356Z,91.60
2017-12-12T23:39:14.598Z,91.60
2017-12-12T23:41:42.036Z,91.60
2017-12-12T23:44:09.460Z,91.60
2017-12-12T23:46:37.702Z,91.60
2017-12-12T23:49:05.100Z,91.60
2017-12-12T23:51:32.539Z,91.60
2017-12-12T23:54:00.763Z,91.70
2017-12-12T23:56:28.226Z,91.60
2017-12-12T23:58:55.675Z,91.70
